SHU1673 UHMM-PANC
Flight info
| Callsign | SHU1673 |
|---|---|
| Flight time | N/A |
| Altitude | 37000 |
| Route | MEBAR5D MEBAR B216 LUNAD N222 BUMUL/K0796F250 G212 AKETA/K0856F370 DCT BAMER G212 ABINA N222 VALDA/N0461F370 DCT MCG DCT FFITZ TAGER9 |
| Aircraft | A319/M-SDE3FGHIRWY/LB1 |
Departure
| Time | 2026-04-24 13:36 |
|---|---|
| Airport | Sokol Airport (UHMM) |
Arrival
| Time | N/A |
|---|---|
| Airport | Ted Stevens Anchorage International Airport (PANC) |
| Time | Latitude | Longitude | Altitude | Speed | Heading |
|---|---|---|---|---|---|
| 2026-04-24 12:29 | 59.91345 | 150.73027 | 583 ft | 0 kts | 3° |
| 2026-04-24 13:25 | 59.91330 | 150.73025 | 583 ft | 2 kts | 2° |
| 2026-04-24 13:25 | 59.91316 | 150.73038 | 583 ft | 2 kts | 287° |
| 2026-04-24 13:25 | 59.91313 | 150.73066 | 583 ft | 1 kts | 270° |
| 2026-04-24 13:25 | 59.91313 | 150.73070 | 583 ft | 0 kts | 269° |
| 2026-04-24 13:28 | 59.91316 | 150.72994 | 583 ft | 13 kts | 274° |
| 2026-04-24 13:29 | 59.91314 | 150.72823 | 583 ft | 13 kts | 253° |
| 2026-04-24 13:29 | 59.91257 | 150.72691 | 583 ft | 14 kts | 186° |
| 2026-04-24 13:29 | 59.91197 | 150.72685 | 583 ft | 0 kts | 183° |
| 2026-04-24 13:30 | 59.91185 | 150.72684 | 583 ft | 6 kts | 183° |
| 2026-04-24 13:30 | 59.91108 | 150.72673 | 584 ft | 12 kts | 186° |
| 2026-04-24 13:31 | 59.91085 | 150.72525 | 583 ft | 14 kts | 271° |
| 2026-04-24 13:31 | 59.91091 | 150.72298 | 581 ft | 18 kts | 272° |
| 2026-04-24 13:31 | 59.91098 | 150.72033 | 581 ft | 20 kts | 273° |
| 2026-04-24 13:31 | 59.91106 | 150.71737 | 582 ft | 22 kts | 274° |
| 2026-04-24 13:32 | 59.91114 | 150.71429 | 584 ft | 23 kts | 273° |
| 2026-04-24 13:32 | 59.91123 | 150.71103 | 585 ft | 24 kts | 273° |
| 2026-04-24 13:32 | 59.91132 | 150.70745 | 583 ft | 27 kts | 273° |
| 2026-04-24 13:32 | 59.91143 | 150.70346 | 581 ft | 30 kts | 273° |
| 2026-04-24 13:33 | 59.91154 | 150.69920 | 583 ft | 31 kts | 273° |
| 2026-04-24 13:33 | 59.91166 | 150.69482 | 585 ft | 32 kts | 273° |
| 2026-04-24 13:33 | 59.91205 | 150.69122 | 583 ft | 22 kts | 329° |
| 2026-04-24 13:33 | 59.91187 | 150.68972 | 584 ft | 6 kts | 165° |
| 2026-04-24 13:34 | 59.91177 | 150.69048 | 583 ft | 11 kts | 93° |
| 2026-04-24 13:34 | 59.91176 | 150.69096 | 583 ft | 0 kts | 92° |
| 2026-04-24 13:34 | 59.91176 | 150.69101 | 583 ft | 0 kts | 93° |
| 2026-04-24 13:35 | 59.91176 | 150.69107 | 583 ft | 0 kts | 93° |
| 2026-04-24 13:35 | 59.91176 | 150.69108 | 583 ft | 1 kts | 93° |
| 2026-04-24 13:36 | 59.91170 | 150.69331 | 586 ft | 52 kts | 92° |
| 2026-04-24 13:36 | 59.91139 | 150.70620 | 582 ft | 132 kts | 92° |
| 2026-04-24 13:36 | 59.91102 | 150.72827 | 758 ft | 172 kts | 92° |
| 2026-04-24 13:36 | 59.91052 | 150.75180 | 1525 ft | 169 kts | 90° |
| 2026-04-24 13:37 | 59.91004 | 150.77510 | 2384 ft | 169 kts | 89° |
| 2026-04-24 13:37 | 59.90938 | 150.79975 | 2837 ft | 189 kts | 89° |
| 2026-04-24 13:37 | 59.90861 | 150.82773 | 3234 ft | 214 kts | 89° |
| 2026-04-24 13:37 | 59.90772 | 150.85905 | 3760 ft | 238 kts | 89° |
| 2026-04-24 13:38 | 59.90672 | 150.89286 | 4622 ft | 248 kts | 89° |
| 2026-04-24 13:38 | 59.90570 | 150.92721 | 5672 ft | 250 kts | 89° |
| 2026-04-24 13:38 | 59.90468 | 150.96202 | 6674 ft | 254 kts | 89° |
| 2026-04-24 13:38 | 59.90363 | 150.99753 | 7582 ft | 259 kts | 89° |
| 2026-04-24 13:39 | 59.90253 | 151.03372 | 8492 ft | 265 kts | 89° |
| 2026-04-24 13:39 | 59.90142 | 151.07071 | 9413 ft | 270 kts | 90° |
| 2026-04-24 13:39 | 59.90030 | 151.10850 | 10266 ft | 278 kts | 90° |
| 2026-04-24 13:39 | 59.89914 | 151.14865 | 10627 ft | 302 kts | 90° |
| 2026-04-24 13:40 | 59.89786 | 151.19198 | 10917 ft | 326 kts | 90° |
| 2026-04-24 13:40 | 59.89644 | 151.23860 | 11202 ft | 347 kts | 90° |
| 2026-04-24 13:40 | 59.89484 | 151.28731 | 11834 ft | 356 kts | 90° |
| 2026-04-24 13:40 | 59.89316 | 151.33677 | 12585 ft | 361 kts | 90° |
| 2026-04-24 13:41 | 59.89271 | 151.38679 | 13328 ft | 362 kts | 80° |
| 2026-04-24 13:41 | 59.89881 | 151.43441 | 14043 ft | 359 kts | 62° |
| 2026-04-24 13:41 | 59.91200 | 151.47604 | 14728 ft | 355 kts | 45° |
| 2026-04-24 13:41 | 59.93094 | 151.50710 | 15432 ft | 353 kts | 28° |
| 2026-04-24 13:42 | 59.95277 | 151.52958 | 16146 ft | 355 kts | 25° |
| 2026-04-24 13:42 | 59.97494 | 151.55173 | 16872 ft | 358 kts | 25° |
| 2026-04-24 13:42 | 59.99728 | 151.57416 | 17587 ft | 361 kts | 25° |
| 2026-04-24 13:42 | 60.01975 | 151.59687 | 18281 ft | 364 kts | 25° |
| 2026-04-24 13:43 | 60.04243 | 151.61991 | 18871 ft | 367 kts | 25° |
| 2026-04-24 13:43 | 60.06526 | 151.64315 | 19435 ft | 370 kts | 25° |
| 2026-04-24 13:43 | 60.08827 | 151.66660 | 19986 ft | 372 kts | 25° |
| 2026-04-24 13:43 | 60.11144 | 151.69028 | 20547 ft | 375 kts | 26° |
| 2026-04-24 13:44 | 60.13474 | 151.71413 | 21086 ft | 378 kts | 26° |
| 2026-04-24 13:44 | 60.15823 | 151.73820 | 21615 ft | 380 kts | 26° |
| 2026-04-24 13:44 | 60.18186 | 151.76248 | 22139 ft | 383 kts | 26° |
| 2026-04-24 13:44 | 60.20563 | 151.78690 | 22653 ft | 385 kts | 26° |
| 2026-04-24 13:45 | 60.22932 | 151.81257 | 23151 ft | 388 kts | 31° |
| 2026-04-24 13:45 | 60.25097 | 151.84550 | 23640 ft | 393 kts | 40° |
| 2026-04-24 13:45 | 60.26965 | 151.88610 | 24054 ft | 399 kts | 49° |
| 2026-04-24 13:45 | 60.28497 | 151.93313 | 24435 ft | 403 kts | 55° |
| 2026-04-24 13:46 | 60.29954 | 151.98163 | 24815 ft | 406 kts | 55° |
| 2026-04-24 13:46 | 60.31422 | 152.03054 | 25167 ft | 409 kts | 55° |
| 2026-04-24 13:46 | 60.32893 | 152.07975 | 25541 ft | 411 kts | 56° |
| 2026-04-24 13:46 | 60.34375 | 152.12934 | 25900 ft | 414 kts | 56° |
| 2026-04-24 13:47 | 60.35866 | 152.17924 | 26239 ft | 416 kts | 56° |
| 2026-04-24 13:47 | 60.37363 | 152.22945 | 26590 ft | 419 kts | 56° |
| 2026-04-24 13:47 | 60.38868 | 152.27997 | 26932 ft | 421 kts | 56° |
| 2026-04-24 13:47 | 60.40380 | 152.33086 | 27267 ft | 424 kts | 56° |
| 2026-04-24 13:48 | 60.41899 | 152.38216 | 27598 ft | 426 kts | 56° |
| 2026-04-24 13:48 | 60.43424 | 152.43380 | 27922 ft | 428 kts | 56° |
| 2026-04-24 13:48 | 60.44951 | 152.48573 | 28338 ft | 429 kts | 56° |
| 2026-04-24 13:48 | 60.46472 | 152.53756 | 28820 ft | 428 kts | 56° |
| 2026-04-24 13:49 | 60.47990 | 152.58937 | 29296 ft | 427 kts | 56° |
| 2026-04-24 13:49 | 60.49483 | 152.64041 | 29785 ft | 426 kts | 56° |
| 2026-04-24 13:49 | 60.50993 | 152.69205 | 30256 ft | 425 kts | 57° |
| 2026-04-24 13:49 | 60.52499 | 152.74374 | 30632 ft | 425 kts | 57° |
| 2026-04-24 13:50 | 60.54003 | 152.79542 | 30937 ft | 427 kts | 57° |
| 2026-04-24 13:50 | 60.55519 | 152.84753 | 31238 ft | 428 kts | 57° |
| 2026-04-24 13:50 | 60.57054 | 152.90042 | 31545 ft | 430 kts | 57° |
| 2026-04-24 13:50 | 60.58547 | 152.95217 | 31847 ft | 431 kts | 57° |
| 2026-04-24 13:51 | 60.60063 | 153.00491 | 32145 ft | 432 kts | 57° |
| 2026-04-24 13:51 | 60.61578 | 153.05784 | 32447 ft | 433 kts | 57° |
| 2026-04-24 13:51 | 60.63097 | 153.11095 | 32739 ft | 434 kts | 57° |
| 2026-04-24 13:51 | 60.64629 | 153.16405 | 33033 ft | 435 kts | 57° |
| 2026-04-24 13:52 | 60.66167 | 153.21706 | 33366 ft | 436 kts | 57° |
| 2026-04-24 13:52 | 60.67716 | 153.27024 | 33700 ft | 436 kts | 57° |
| 2026-04-24 13:52 | 60.69265 | 153.32352 | 34032 ft | 436 kts | 57° |
| 2026-04-24 13:52 | 60.70806 | 153.37674 | 34325 ft | 436 kts | 57° |
| 2026-04-24 13:53 | 60.72344 | 153.43016 | 34578 ft | 437 kts | 57° |
| 2026-04-24 13:53 | 60.73879 | 153.48372 | 34818 ft | 437 kts | 57° |
| 2026-04-24 13:53 | 60.75415 | 153.53753 | 35054 ft | 438 kts | 57° |
| 2026-04-24 13:53 | 60.76949 | 153.59141 | 35282 ft | 439 kts | 58° |
| 2026-04-24 13:54 | 60.78485 | 153.64545 | 35502 ft | 440 kts | 58° |
| 2026-04-24 13:54 | 60.80021 | 153.69961 | 35723 ft | 440 kts | 58° |
| 2026-04-24 13:54 | 60.81561 | 153.75399 | 35938 ft | 441 kts | 58° |
| 2026-04-24 13:54 | 60.83100 | 153.80837 | 36148 ft | 442 kts | 58° |
| 2026-04-24 13:55 | 60.84640 | 153.86284 | 36374 ft | 442 kts | 58° |
| 2026-04-24 13:55 | 60.86177 | 153.91751 | 36573 ft | 443 kts | 58° |
| 2026-04-24 13:55 | 60.87714 | 153.97234 | 36773 ft | 443 kts | 58° |
| 2026-04-24 13:55 | 60.89249 | 154.02726 | 36977 ft | 443 kts | 58° |
| 2026-04-24 13:56 | 60.90782 | 154.08225 | 37095 ft | 445 kts | 58° |
| 2026-04-24 13:56 | 60.92318 | 154.13750 | 37124 ft | 446 kts | 58° |
| 2026-04-24 13:56 | 60.95393 | 154.24831 | 37114 ft | 446 kts | 58° |
| 2026-04-24 13:57 | 60.98463 | 154.35934 | 37120 ft | 446 kts | 58° |
| 2026-04-24 13:57 | 61.01519 | 154.47042 | 37113 ft | 445 kts | 58° |
| 2026-04-24 13:58 | 61.04561 | 154.58174 | 37107 ft | 445 kts | 58° |
| 2026-04-24 13:58 | 61.07591 | 154.69327 | 37104 ft | 445 kts | 59° |
| 2026-04-24 13:59 | 61.10615 | 154.80501 | 37105 ft | 446 kts | 59° |
| 2026-04-24 13:59 | 61.13634 | 154.91708 | 37095 ft | 446 kts | 59° |
| 2026-04-24 14:00 | 61.16651 | 155.02935 | 37095 ft | 446 kts | 59° |
| 2026-04-24 14:00 | 61.19658 | 155.14187 | 37094 ft | 446 kts | 59° |
| 2026-04-24 14:01 | 61.22653 | 155.25480 | 37095 ft | 447 kts | 59° |
| 2026-04-24 14:01 | 61.25621 | 155.36721 | 37097 ft | 447 kts | 59° |
| 2026-04-24 14:02 | 61.28597 | 155.48050 | 37096 ft | 446 kts | 59° |
| 2026-04-24 14:02 | 61.31557 | 155.59402 | 37086 ft | 446 kts | 59° |
| 2026-04-24 14:03 | 61.34517 | 155.70772 | 37084 ft | 446 kts | 59° |
| 2026-04-24 14:03 | 61.37469 | 155.82157 | 37083 ft | 446 kts | 60° |
| 2026-04-24 14:04 | 61.40410 | 155.93564 | 37090 ft | 446 kts | 60° |
| 2026-04-24 14:04 | 61.43338 | 156.05001 | 37087 ft | 446 kts | 60° |
| 2026-04-24 14:05 | 61.46251 | 156.16448 | 37083 ft | 446 kts | 60° |
| 2026-04-24 14:05 | 61.49156 | 156.27916 | 37080 ft | 446 kts | 60° |
| 2026-04-24 14:06 | 61.51563 | 156.37466 | 37077 ft | 446 kts | 60° |
| 2026-04-24 14:06 | 61.54453 | 156.48970 | 37074 ft | 446 kts | 60° |
| 2026-04-24 14:07 | 61.57798 | 156.62369 | 37071 ft | 446 kts | 60° |
| 2026-04-24 14:07 | 61.60202 | 156.72046 | 37067 ft | 446 kts | 60° |
| 2026-04-24 14:08 | 61.63043 | 156.83530 | 37065 ft | 446 kts | 60° |
| 2026-04-24 14:08 | 61.65888 | 156.95114 | 37063 ft | 446 kts | 60° |
| 2026-04-24 14:09 | 61.68732 | 157.06718 | 37065 ft | 446 kts | 61° |
| 2026-04-24 14:09 | 61.71558 | 157.18357 | 37062 ft | 446 kts | 61° |
| 2026-04-24 14:10 | 61.74382 | 157.29994 | 37060 ft | 446 kts | 61° |
| 2026-04-24 14:10 | 61.77189 | 157.41666 | 37059 ft | 446 kts | 61° |
| 2026-04-24 14:11 | 61.79994 | 157.53378 | 37061 ft | 446 kts | 61° |
| 2026-04-24 14:12 | 61.84177 | 157.70978 | 37060 ft | 446 kts | 62° |
| 2026-04-24 14:12 | 61.86958 | 157.82749 | 37057 ft | 447 kts | 62° |
| 2026-04-24 14:13 | 61.89723 | 157.94542 | 37057 ft | 447 kts | 62° |
| 2026-04-24 14:13 | 61.92465 | 158.06278 | 37063 ft | 447 kts | 62° |
| 2026-04-24 14:14 | 61.95226 | 158.18117 | 37058 ft | 447 kts | 62° |
| 2026-04-24 14:14 | 61.99336 | 158.35947 | 37052 ft | 448 kts | 62° |
| 2026-04-24 14:15 | 62.02057 | 158.47865 | 37056 ft | 448 kts | 62° |
| 2026-04-24 14:15 | 62.04781 | 158.59796 | 37050 ft | 448 kts | 63° |
| 2026-04-24 14:16 | 62.07498 | 158.71757 | 37050 ft | 448 kts | 63° |
| 2026-04-24 14:17 | 62.11551 | 158.89750 | 37049 ft | 448 kts | 63° |
| 2026-04-24 14:17 | 62.15582 | 159.07808 | 37044 ft | 449 kts | 63° |
| 2026-04-24 14:18 | 62.18252 | 159.19889 | 37046 ft | 449 kts | 63° |
| 2026-04-24 14:18 | 62.20920 | 159.31982 | 37047 ft | 449 kts | 63° |
| 2026-04-24 14:19 | 62.23575 | 159.44109 | 37047 ft | 449 kts | 64° |
| 2026-04-24 14:19 | 62.26209 | 159.56181 | 37047 ft | 449 kts | 64° |
| 2026-04-24 14:20 | 62.28845 | 159.68360 | 37042 ft | 450 kts | 64° |
| 2026-04-24 14:20 | 62.31473 | 159.80564 | 37046 ft | 450 kts | 64° |
| 2026-04-24 14:21 | 62.34086 | 159.92800 | 37046 ft | 450 kts | 64° |
| 2026-04-24 14:21 | 62.36694 | 160.05051 | 37046 ft | 450 kts | 64° |
| 2026-04-24 14:22 | 62.39289 | 160.17311 | 37045 ft | 450 kts | 64° |
| 2026-04-24 14:23 | 62.43162 | 160.35749 | 37042 ft | 450 kts | 64° |
| 2026-04-24 14:23 | 62.45739 | 160.48075 | 37041 ft | 450 kts | 65° |
| 2026-04-24 14:24 | 62.48295 | 160.60424 | 37040 ft | 450 kts | 65° |
| 2026-04-24 14:24 | 62.50845 | 160.72804 | 37037 ft | 450 kts | 65° |
| 2026-04-24 14:25 | 62.53379 | 160.85212 | 37040 ft | 450 kts | 65° |
| 2026-04-24 14:25 | 62.55910 | 160.97637 | 37039 ft | 451 kts | 65° |
| 2026-04-24 14:26 | 62.58415 | 161.10002 | 37042 ft | 451 kts | 65° |
| 2026-04-24 14:26 | 62.60921 | 161.22462 | 37043 ft | 450 kts | 65° |
| 2026-04-24 14:27 | 62.63430 | 161.35030 | 37046 ft | 450 kts | 65° |
| 2026-04-24 14:27 | 62.65913 | 161.47533 | 37045 ft | 450 kts | 66° |
| 2026-04-24 14:28 | 62.68385 | 161.60051 | 37046 ft | 450 kts | 66° |
| 2026-04-24 14:28 | 62.70843 | 161.72574 | 37046 ft | 450 kts | 66° |
| 2026-04-24 14:29 | 62.73285 | 161.85120 | 37041 ft | 450 kts | 66° |
| 2026-04-24 14:29 | 62.75703 | 161.97602 | 37035 ft | 450 kts | 66° |
| 2026-04-24 14:30 | 62.77737 | 162.08149 | 37034 ft | 450 kts | 66° |
| 2026-04-24 14:30 | 62.80544 | 162.22816 | 37030 ft | 450 kts | 66° |
| 2026-04-24 14:31 | 62.82957 | 162.35545 | 37032 ft | 450 kts | 66° |
| 2026-04-24 14:31 | 62.85334 | 162.48127 | 37030 ft | 450 kts | 66° |
| 2026-04-24 14:32 | 62.87728 | 162.60807 | 37033 ft | 450 kts | 66° |
| 2026-04-24 14:32 | 62.90095 | 162.73527 | 37029 ft | 450 kts | 67° |
| 2026-04-24 14:33 | 62.92452 | 162.86249 | 37028 ft | 451 kts | 67° |
| 2026-04-24 14:33 | 62.94815 | 162.99015 | 37028 ft | 451 kts | 67° |
| 2026-04-24 14:34 | 62.97153 | 163.11799 | 37030 ft | 451 kts | 67° |
| 2026-04-24 14:34 | 62.99468 | 163.24602 | 37029 ft | 451 kts | 67° |
| 2026-04-24 14:35 | 63.01784 | 163.37433 | 37029 ft | 451 kts | 68° |
| 2026-04-24 14:35 | 63.04081 | 163.50274 | 37029 ft | 451 kts | 68° |
| 2026-04-24 14:36 | 63.06358 | 163.63053 | 37029 ft | 451 kts | 68° |
| 2026-04-24 14:36 | 63.08639 | 163.75939 | 37029 ft | 451 kts | 68° |
| 2026-04-24 14:37 | 63.10905 | 163.88838 | 37030 ft | 451 kts | 68° |
| 2026-04-24 14:37 | 63.13162 | 164.01755 | 37027 ft | 451 kts | 68° |
| 2026-04-24 14:38 | 63.15414 | 164.14680 | 37029 ft | 451 kts | 68° |
| 2026-04-24 14:38 | 63.17645 | 164.27650 | 37029 ft | 451 kts | 68° |
| 2026-04-24 14:39 | 63.19863 | 164.40627 | 37025 ft | 451 kts | 68° |
| 2026-04-24 14:39 | 63.22072 | 164.53633 | 37024 ft | 451 kts | 69° |
| 2026-04-24 14:40 | 63.24271 | 164.66650 | 37030 ft | 451 kts | 69° |
| 2026-04-24 14:40 | 63.26461 | 164.79685 | 37027 ft | 451 kts | 69° |
| 2026-04-24 14:41 | 63.28635 | 164.92738 | 37028 ft | 451 kts | 69° |
| 2026-04-24 14:41 | 63.30777 | 165.05751 | 37034 ft | 451 kts | 69° |
| 2026-04-24 14:42 | 63.32573 | 165.16723 | 37037 ft | 451 kts | 69° |
| 2026-04-24 14:42 | 63.35049 | 165.31983 | 37036 ft | 451 kts | 69° |
| 2026-04-24 14:43 | 63.37172 | 165.45131 | 37036 ft | 451 kts | 69° |
| 2026-04-24 14:43 | 63.39289 | 165.58287 | 37037 ft | 451 kts | 69° |
| 2026-04-24 14:44 | 63.41389 | 165.71468 | 37036 ft | 451 kts | 70° |
| 2026-04-24 14:44 | 63.43465 | 165.84667 | 37039 ft | 451 kts | 70° |
| 2026-04-24 14:45 | 63.45531 | 165.97889 | 37037 ft | 451 kts | 70° |
| 2026-04-24 14:45 | 63.47591 | 166.11137 | 37037 ft | 451 kts | 70° |
| 2026-04-24 14:46 | 63.49622 | 166.24328 | 37034 ft | 451 kts | 70° |
| 2026-04-24 14:46 | 63.51651 | 166.37622 | 37036 ft | 451 kts | 70° |
| 2026-04-24 14:47 | 63.53333 | 166.48680 | 37038 ft | 451 kts | 70° |
| 2026-04-24 14:47 | 63.55684 | 166.64250 | 37033 ft | 451 kts | 70° |
| 2026-04-24 14:48 | 63.57687 | 166.77603 | 37030 ft | 451 kts | 71° |
| 2026-04-24 14:48 | 63.59665 | 166.90966 | 37030 ft | 451 kts | 71° |
| 2026-04-24 14:49 | 63.61633 | 167.04359 | 37027 ft | 451 kts | 71° |
| 2026-04-24 14:49 | 63.63588 | 167.17763 | 37028 ft | 451 kts | 71° |
| 2026-04-24 14:50 | 63.65537 | 167.31196 | 37031 ft | 451 kts | 71° |
| 2026-04-24 14:50 | 63.67470 | 167.44645 | 37025 ft | 451 kts | 71° |
| 2026-04-24 14:51 | 63.69358 | 167.58127 | 37029 ft | 451 kts | 72° |
| 2026-04-24 14:51 | 63.71229 | 167.71658 | 37023 ft | 451 kts | 72° |